Time;durP1;ratioP1;P1;durP2;ratioP2;P2;SDS_P1;SDS_P2;PMS_P1;PMS_P2;Temp;Humidity;BMP_temperature;BMP_pressure;BME280_temperature;BME280_humidity;BME280_pressure;Samples;Min_cycle;Max_cycle;Signal;HPM_P1;HPM_P2
2023/04/05 00:02:02;;;;;;;19.00;13.80;;;;;;;9.74;82.00;100352.84;106331;1254;60502;-84
2023/04/05 00:04:33;;;;;;;20.90;16.20;;;;;;;9.70;82.17;100346.45;106288;1254;74648;-84
2023/04/05 00:07:01;;;;;;;19.00;16.80;;;;;;;9.68;82.41;100341.73;106178;1254;62737;-83
2023/04/05 00:09:28;;;;;;;23.10;15.50;;;;;;;9.67;82.44;100337.55;106256;1254;72464;-83
2023/04/05 00:11:55;;;;;;;23.20;16.30;;;;;;;9.65;82.49;100331.24;106116;1254;60499;-86
2023/04/05 00:14:22;;;;;;;24.30;17.70;;;;;;;9.62;82.54;100324.61;105981;1259;60364;-84
2023/04/05 00:16:49;;;;;;;21.20;16.80;;;;;;;9.61;82.54;100321.35;106067;1254;73762;-85
2023/04/05 00:19:17;;;;;;;22.50;15.60;;;;;;;9.58;82.59;100321.56;106000;1254;64151;-84
2023/04/05 00:21:53;;;;;;;22.80;16.80;;;;;;;9.53;82.58;100318.52;106060;1254;73565;-86
2023/04/05 00:24:20;;;;;;;23.80;16.50;;;;;;;9.50;82.82;100317.44;106229;1254;62955;-86
2023/04/05 00:26:49;;;;;;;23.40;17.60;;;;;;;9.50;82.95;100311.89;106114;1254;60554;-88
2023/04/05 00:29:17;;;;;;;21.70;17.10;;;;;;;9.50;83.07;100307.56;106091;1259;74723;-84
2023/04/05 00:31:44;;;;;;;22.30;17.80;;;;;;;9.47;83.03;100304.42;106086;1254;64858;-84
2023/04/05 00:34:11;;;;;;;23.00;18.00;;;;;;;9.43;82.92;100306.91;106080;1254;72709;-85
2023/04/05 00:36:40;;;;;;;27.50;19.90;;;;;;;9.39;83.25;100308.00;105984;1254;62073;-84
2023/04/05 00:39:07;;;;;;;25.40;18.30;;;;;;;9.35;83.38;100306.68;106025;1255;60450;-85
2023/04/05 00:41:35;;;;;;;26.90;19.10;;;;;;;9.32;83.62;100305.30;106108;1254;74679;-84
2023/04/05 00:44:04;;;;;;;22.70;18.70;;;;;;;9.30;84.13;100307.11;106091;1254;64837;-83
2023/04/05 00:46:35;;;;;;;24.40;18.00;;;;;;;9.31;84.37;100307.62;106191;1254;73663;-83
2023/04/05 00:49:03;;;;;;;26.90;18.60;;;;;;;9.33;84.37;100305.59;106263;1256;61876;-86
2023/04/05 00:51:32;;;;;;;25.30;20.00;;;;;;;9.35;84.33;100308.63;106353;1256;61371;-85
2023/04/05 00:54:00;;;;;;;29.70;19.90;;;;;;;9.36;84.14;100305.93;106244;1254;73950;-84
2023/04/05 00:56:27;;;;;;;28.50;19.80;;;;;;;9.36;84.15;100306.14;106139;1254;65237;-85
2023/04/05 00:58:56;;;;;;;25.20;19.30;;;;;;;9.34;84.08;100307.05;106086;1254;73500;-84
2023/04/05 01:01:25;;;;;;;30.00;21.60;;;;;;;9.34;84.02;100309.38;106226;1254;62967;-85
2023/04/05 01:03:59;;;;;;;28.80;19.50;;;;;;;9.33;83.95;100310.11;105921;1254;61230;-83
2023/04/05 01:06:49;;;;;;;26.80;18.20;;;;;;;9.31;83.95;100310.23;106022;1259;73669;-85
2023/04/05 01:09:31;;;;;;;24.10;17.70;;;;;;;9.29;84.14;100302.67;106328;1259;63582;-83
2023/04/05 01:12:08;;;;;;;27.30;19.50;;;;;;;9.29;84.21;100296.21;106126;1258;73573;-84
2023/04/05 01:14:44;;;;;;;26.00;19.80;;;;;;;9.31;84.33;100292.77;105805;1260;61689;-86
2023/04/05 01:17:12;;;;;;;24.20;19.50;;;;;;;9.34;84.28;100292.43;105830;1257;60465;-86
2023/04/05 01:19:40;;;;;;;28.40;21.20;;;;;;;9.37;84.07;100287.54;105793;1254;74010;-84
2023/04/05 01:22:17;;;;;;;25.00;21.30;;;;;;;9.37;83.89;100275.73;105783;1254;65197;-85
2023/04/05 01:25:10;;;;;;;30.40;23.00;;;;;;;9.36;83.97;100281.33;106027;1254;72598;-87
2023/04/05 01:27:59;;;;;;;30.80;23.60;;;;;;;9.35;83.92;100286.95;105878;1259;62287;-84
2023/04/05 01:30:55;;;;;;;29.00;21.10;;;;;;;9.31;83.91;100289.13;106111;1254;61308;-84
2023/04/05 01:33:32;;;;;;;29.30;22.90;;;;;;;9.26;84.00;100292.90;106053;1257;73470;-85
2023/04/05 01:36:07;;;;;;;25.20;20.40;;;;;;;9.21;84.03;100288.30;105960;1254;65377;-81
2023/04/05 01:38:38;;;;;;;29.30;21.60;;;;;;;9.20;84.22;100286.84;105749;1254;73804;-86
2023/04/05 01:41:05;;;;;;;30.50;22.00;;;;;;;9.18;84.38;100285.73;106488;1254;61020;-84
2023/04/05 01:43:38;;;;;;;28.90;21.80;;;;;;;9.17;84.49;100285.61;108922;1254;59488;-83
2023/04/05 01:46:05;;;;;;;26.80;21.30;;;;;;;9.18;84.55;100285.20;108873;1254;73779;-86
2023/04/05 01:48:32;;;;;;;33.30;22.80;;;;;;;9.19;84.56;100279.23;107795;1256;63975;-86
2023/04/05 01:51:00;;;;;;;35.00;22.40;;;;;;;9.17;84.59;100274.44;106230;1258;73665;-84
2023/04/05 01:53:27;;;;;;;31.40;23.00;;;;;;;9.17;84.62;100275.01;106284;1258;61584;-86
2023/04/05 01:56:01;;;;;;;33.50;23.90;;;;;;;9.16;84.59;100273.63;106348;1254;60495;-86
2023/04/05 01:58:29;;;;;;;29.40;21.90;;;;;;;9.15;84.64;100270.75;106238;1254;73775;-85
2023/04/05 02:00:56;;;;;;;31.10;22.00;;;;;;;9.12;84.64;100275.58;106895;1254;64066;-85
2023/04/05 02:03:24;;;;;;;30.50;22.00;;;;;;;9.10;84.72;100277.96;107241;1254;73503;-85
2023/04/05 02:05:52;;;;;;;29.10;20.60;;;;;;;9.10;84.89;100276.27;107376;1254;61723;-85
2023/04/05 02:08:22;;;;;;;28.80;20.40;;;;;;;9.11;85.01;100270.95;108387;1254;61305;-85
2023/04/05 02:10:51;;;;;;;27.10;18.20;;;;;;;9.13;84.99;100267.69;109103;1256;73743;-86
2023/04/05 02:13:25;;;;;;;29.10;19.50;;;;;;;9.17;85.01;100260.01;107658;1254;63821;-86
2023/04/05 02:15:53;;;;;;;25.30;18.50;;;;;;;9.21;85.04;100259.20;106522;1256;73712;-87
2023/04/05 02:18:21;;;;;;;27.90;19.90;;;;;;;9.24;84.80;100259.19;107024;1254;60571;-86
2023/04/05 02:20:51;;;;;;;28.10;19.10;;;;;;;9.23;84.74;100257.48;106857;1258;60457;-84
2023/04/05 02:23:18;;;;;;;29.50;19.30;;;;;;;9.24;84.62;100254.34;106907;1254;74795;-86
2023/04/05 02:25:45;;;;;;;27.50;18.00;;;;;;;9.22;84.61;100247.96;106413;1254;64219;-84
2023/04/05 02:28:12;;;;;;;26.20;17.90;;;;;;;9.23;84.58;100246.55;106208;1258;73422;-86
2023/04/05 02:30:40;;;;;;;24.20;17.40;;;;;;;9.20;84.55;100245.13;106303;1254;63067;-85
2023/04/05 02:33:11;;;;;;;20.60;16.50;;;;;;;9.19;84.69;100249.23;106121;1256;61092;-84
2023/04/05 02:35:41;;;;;;;25.10;18.50;;;;;;;9.17;84.89;100251.58;106161;1254;74919;-86
2023/04/05 02:38:08;;;;;;;22.80;17.40;;;;;;;9.16;85.03;100255.14;106219;1254;65003;-85
2023/04/05 02:40:35;;;;;;;25.90;20.60;;;;;;;9.18;85.16;100250.34;106104;1254;73731;-85
2023/04/05 02:43:02;;;;;;;30.90;21.60;;;;;;;9.20;85.12;100249.36;106187;1256;61258;-86
2023/04/05 02:45:30;;;;;;;28.20;20.90;;;;;;;9.22;85.07;100240.48;105814;1254;549834;-85
2023/04/05 02:49:49;;;;;;;28.10;20.90;;;;;;;9.26;84.91;100229.95;102864;1295;616336;-89
2023/04/05 02:52:17;;;;;;;29.00;21.30;;;;;;;9.23;84.82;100224.20;105034;1272;61867;-85
2023/04/05 02:54:45;;;;;;;26.60;22.30;;;;;;;9.21;84.92;100231.50;105322;1270;60312;-87
2023/04/05 02:57:12;;;;;;;30.10;21.40;;;;;;;9.18;84.93;100236.19;105182;1270;72469;-85
2023/04/05 02:59:47;;;;;;;33.70;23.20;;;;;;;9.16;85.04;100225.48;104955;1273;64443;-85
2023/04/05 03:02:15;;;;;;;30.50;21.40;;;;;;;9.16;85.28;100221.85;105163;1257;621177;-84
2023/04/05 03:04:43;;;;;;;29.80;23.30;;;;;;;9.17;85.38;100219.89;105887;1257;61564;-84
2023/04/05 03:07:18;;;;;;;32.80;22.80;;;;;;;9.16;85.49;100222.54;106014;1257;61406;-85
2023/04/05 03:09:46;;;;;;;29.10;21.70;;;;;;;9.14;85.50;100222.48;105978;1260;73414;-86
2023/04/05 03:12:14;;;;;;;34.00;23.90;;;;;;;9.10;85.61;100226.38;105851;1261;65091;-85
2023/04/05 03:14:45;;;;;;;28.40;23.70;;;;;;;9.07;85.80;100218.52;106330;1253;72690;-85
2023/04/05 03:17:14;;;;;;;33.40;22.30;;;;;;;9.05;86.04;100217.06;106033;1254;61411;-87
2023/04/05 03:19:45;;;;;;;24.30;18.90;;;;;;;9.04;86.17;100213.98;106025;1254;61225;-84
2023/04/05 03:22:20;;;;;;;27.80;19.50;;;;;;;9.02;86.53;100217.45;105893;1257;71752;-86
2023/04/05 03:24:47;;;;;;;22.50;18.00;;;;;;;9.01;86.76;100214.58;106292;1257;65344;-85
2023/04/05 03:27:20;;;;;;;23.00;17.70;;;;;;;9.01;87.00;100215.55;106390;1253;73530;-84
2023/04/05 03:30:17;;;;;;;24.60;17.60;;;;;;;9.05;87.08;100205.79;106145;1251;62093;-86
2023/04/05 03:33:11;;;;;;;25.90;17.40;;;;;;;9.07;87.18;100196.90;106169;1255;60916;-84
2023/04/05 03:35:42;;;;;;;25.10;18.70;;;;;;;9.10;87.33;100194.45;106131;1251;73712;-86
2023/04/05 03:38:10;;;;;;;27.20;20.10;;;;;;;9.13;87.08;100191.80;106179;1253;64818;-83
2023/04/05 03:40:42;;;;;;;27.40;18.90;;;;;;;9.15;87.09;100185.29;106461;1254;73833;-85
2023/04/05 03:43:10;;;;;;;23.60;17.70;;;;;;;9.18;86.87;100183.02;106320;1252;62744;-84
2023/04/05 03:45:38;;;;;;;23.40;17.90;;;;;;;9.19;86.75;100181.89;106230;1256;59989;-86
2023/04/05 03:48:08;;;;;;;22.40;17.50;;;;;;;9.22;86.81;100181.92;106143;1257;74044;-87
2023/04/05 03:50:35;;;;;;;26.20;18.00;;;;;;;9.24;86.83;100175.29;106447;1256;64922;-85
2023/04/05 03:53:05;;;;;;;21.30;17.30;;;;;;;9.30;86.87;100171.63;106259;1251;73880;-84
2023/04/05 03:55:32;;;;;;;22.90;14.60;;;;;;;9.36;86.65;100168.11;106437;1251;63470;-85
2023/04/05 03:58:02;;;;;;;27.20;17.40;;;;;;;9.42;86.43;100160.90;106280;1255;60923;-84
2023/04/05 04:00:33;;;;;;;23.00;16.30;;;;;;;9.49;86.23;100160.33;106599;1251;72827;-85
2023/04/05 04:03:11;;;;;;;23.50;17.20;;;;;;;9.57;85.89;100154.23;106241;1256;64761;-87
2023/04/05 04:05:43;;;;;;;23.00;17.20;;;;;;;9.65;85.55;100152.88;106416;1256;73698;-85
2023/04/05 04:08:12;;;;;;;23.30;17.50;;;;;;;9.74;85.09;100152.61;106400;1256;63086;-87
2023/04/05 04:10:39;;;;;;;27.40;17.50;;;;;;;9.84;84.81;100148.52;106558;1256;61462;-84
2023/04/05 04:13:23;;;;;;;23.90;17.10;;;;;;;9.95;84.33;100146.04;106271;1256;73996;-84
2023/04/05 04:16:05;;;;;;;22.40;16.90;;;;;;;10.04;83.59;100147.93;106273;1256;64865;-84
2023/04/05 04:18:44;;;;;;;24.00;16.60;;;;;;;10.10;83.10;100143.66;106427;1251;72160;-83
2023/04/05 04:21:32;;;;;;;24.90;16.10;;;;;;;10.19;82.97;100144.98;106244;1255;62029;-84
2023/04/05 04:24:19;;;;;;;22.40;15.70;;;;;;;10.30;82.26;100144.08;106305;1251;61264;-84
2023/04/05 04:27:10;;;;;;;24.30;15.70;;;;;;;10.39;81.75;100147.89;106126;1256;73106;-85
2023/04/05 04:29:45;;;;;;;26.10;16.50;;;;;;;10.43;81.09;100143.45;106283;1255;64520;-84
2023/04/05 04:32:50;;;;;;;23.80;18.40;;;;;;;10.50;80.73;100139.85;106539;1251;73342;-81
2023/04/05 04:35:19;;;;;;;19.60;15.90;;;;;;;10.62;80.41;100140.02;106756;1251;61489;-85
2023/04/05 04:38:20;;;;;;;22.50;16.80;;;;;;;10.76;79.58;100139.43;106337;1256;61224;-83
2023/04/05 04:41:06;;;;;;;22.80;17.00;;;;;;;10.88;78.81;100135.63;106440;1251;72305;-84
2023/04/05 04:43:57;;;;;;;23.20;16.80;;;;;;;10.99;77.94;100130.90;106487;1251;64923;-86
2023/04/05 04:46:59;;;;;;;20.70;15.90;;;;;;;11.10;77.28;100130.30;106370;1251;72272;-86
2023/04/05 04:49:52;;;;;;;17.70;14.30;;;;;;;11.28;76.61;100127.27;106306;1251;60448;-85
2023/04/05 04:52:19;;;;;;;20.20;15.80;;;;;;;11.49;75.87;100123.67;106202;1256;61599;-85
2023/04/05 04:54:46;;;;;;;19.50;15.20;;;;;;;11.78;74.97;100126.86;106322;1251;73999;-84
2023/04/05 04:57:13;;;;;;;19.10;13.40;;;;;;;12.07;73.72;100119.67;106302;1251;63664;-86
2023/04/05 04:59:41;;;;;;;22.30;13.80;;;;;;;12.34;72.46;100116.41;106254;1256;73465;-87
2023/04/05 05:02:09;;;;;;;19.50;15.10;;;;;;;12.66;71.15;100118.02;106136;1255;61395;-88
2023/04/05 05:04:37;;;;;;;17.80;14.40;;;;;;;12.98;70.05;100112.73;106370;1251;60206;-85
2023/04/05 05:07:04;;;;;;;17.00;13.60;;;;;;;13.32;68.67;100112.35;106315;1251;72697;-86
2023/04/05 05:09:32;;;;;;;19.30;13.60;;;;;;;13.67;67.29;100114.09;106285;1255;64951;-85
2023/04/05 05:12:01;;;;;;;17.60;14.20;;;;;;;13.99;65.76;100119.59;106314;1251;72567;-86
2023/04/05 05:14:28;;;;;;;14.90;13.40;;;;;;;14.33;64.88;100115.05;106278;1257;61254;-86
2023/04/05 05:16:57;;;;;;;17.30;12.80;;;;;;;14.64;63.23;100117.20;106191;1251;61684;-87
2023/04/05 05:19:28;;;;;;;20.80;14.50;;;;;;;14.89;62.00;100114.73;106207;1255;73834;-84
2023/04/05 05:21:55;;;;;;;21.90;13.50;;;;;;;15.05;61.78;100116.17;106175;1252;64774;-85
2023/04/05 05:24:24;;;;;;;18.40;13.60;;;;;;;15.29;61.22;100110.90;106148;1251;73600;-85
2023/04/05 05:26:50;;;;;;;17.30;13.50;;;;;;;15.58;60.25;100120.83;106226;1255;61225;-87
2023/04/05 05:29:19;;;;;;;19.80;14.70;;;;;;;15.81;59.03;100114.36;106085;1251;61087;-84
2023/04/05 05:31:47;;;;;;;18.00;14.30;;;;;;;15.91;58.39;100112.80;106105;1252;74091;-84
2023/04/05 05:34:14;;;;;;;16.80;15.00;;;;;;;16.02;57.69;100111.66;106214;1251;63566;-85
2023/04/05 05:36:47;;;;;;;17.00;14.30;;;;;;;16.15;57.38;100114.33;106251;1256;73621;-85
2023/04/05 05:39:15;;;;;;;21.70;13.40;;;;;;;16.28;57.18;100120.02;106196;1256;61251;-86
2023/04/05 05:41:43;;;;;;;20.30;14.10;;;;;;;16.52;57.31;100123.41;106185;1251;61838;-84
2023/04/05 05:44:11;;;;;;;17.00;14.40;;;;;;;16.87;55.92;100134.13;106249;1251;73998;-84
2023/04/05 05:46:39;;;;;;;18.90;13.40;;;;;;;17.06;54.32;100134.87;106381;1256;64847;-84
2023/04/05 05:49:07;;;;;;;19.00;13.70;;;;;;;17.05;53.93;100126.98;106339;1256;73341;-85
2023/04/05 05:51:34;;;;;;;20.30;12.80;;;;;;;17.03;54.08;100117.98;106138;1252;60155;-85
2023/04/05 05:54:02;;;;;;;21.40;12.50;;;;;;;17.14;53.77;100118.16;106153;1251;61992;-86
2023/04/05 05:56:30;;;;;;;14.00;12.20;;;;;;;17.29;53.34;100119.00;106150;1255;73863;-86
2023/04/05 05:58:58;;;;;;;15.80;13.10;;;;;;;17.41;53.51;100110.25;106158;1251;65152;-86
2023/04/05 06:01:26;;;;;;;16.50;12.20;;;;;;;17.65;52.91;100107.26;106297;1251;73660;-84
2023/04/05 06:03:54;;;;;;;19.10;12.50;;;;;;;17.80;52.22;100104.52;106225;1256;62217;-86
2023/04/05 06:06:21;;;;;;;16.10;12.40;;;;;;;17.74;52.23;100093.90;106240;1251;61781;-83
2023/04/05 06:08:48;;;;;;;15.10;12.00;;;;;;;17.75;52.40;100100.16;106227;1256;74431;-85
2023/04/05 06:11:17;;;;;;;14.70;12.50;;;;;;;17.82;51.88;100091.76;106565;1251;64712;-85
2023/04/05 06:13:44;;;;;;;14.40;10.90;;;;;;;17.80;51.69;100098.30;107016;1251;73653;-83
2023/04/05 06:16:12;;;;;;;16.20;11.40;;;;;;;17.72;51.66;100103.02;107274;1251;61828;-84
2023/04/05 06:18:40;;;;;;;17.20;11.60;;;;;;;17.52;51.97;100095.89;106794;1251;59952;-85
2023/04/05 06:21:07;;;;;;;17.40;11.70;;;;;;;17.30;52.58;100094.17;106202;1251;74110;-85
2023/04/05 06:23:34;;;;;;;16.70;11.90;;;;;;;17.14;53.03;100093.02;106350;1257;64935;-85
2023/04/05 06:26:01;;;;;;;15.10;11.60;;;;;;;16.98;53.42;100096.21;106242;1255;74121;-86
2023/04/05 06:28:28;;;;;;;13.40;11.60;;;;;;;16.78;54.11;100093.81;106228;1253;61073;-86
2023/04/05 06:30:57;;;;;;;17.80;11.70;;;;;;;16.70;54.37;100089.06;106563;1255;61389;-84
2023/04/05 06:33:25;;;;;;;20.20;12.00;;;;;;;16.71;54.52;100085.80;106270;1251;74102;-85
2023/04/05 06:35:52;;;;;;;16.60;11.20;;;;;;;16.71;54.69;100083.90;106284;1251;64763;-86
2023/04/05 06:38:20;;;;;;;17.40;12.00;;;;;;;16.77;54.64;100084.75;106401;1252;73841;-88
2023/04/05 06:40:47;;;;;;;15.40;11.90;;;;;;;16.84;54.75;100085.02;106151;1256;61382;-86
2023/04/05 06:43:14;;;;;;;15.40;11.10;;;;;;;16.93;54.77;100080.19;106121;1253;61333;-88
2023/04/05 06:45:41;;;;;;;14.40;11.50;;;;;;;17.10;54.40;100073.01;106184;1251;74092;-88
2023/04/05 06:48:10;;;;;;;22.70;12.70;;;;;;;17.21;53.71;100073.15;106117;1256;64882;-86
2023/04/05 06:50:40;;;;;;;20.00;13.10;;;;;;;17.25;53.61;100068.17;106193;1255;73324;-87
2023/04/05 06:53:08;;;;;;;17.80;13.00;;;;;;;17.29;53.76;100068.51;106234;1255;61250;-87
2023/04/05 06:55:35;;;;;;;19.70;13.70;;;;;;;17.31;53.95;100064.36;106188;1251;60314;-86
2023/04/05 06:58:02;;;;;;;14.50;12.60;;;;;;;17.36;53.75;100062.30;106155;1251;73935;-83
2023/04/05 07:00:32;;;;;;;17.10;13.10;;;;;;;17.43;53.16;100063.27;106779;1251;65160;-85
2023/04/05 07:03:02;;;;;;;24.80;12.30;;;;;;;17.36;53.33;100062.27;107611;1251;73351;-84
2023/04/05 07:05:30;;;;;;;13.50;11.10;;;;;;;17.34;53.72;100056.84;107566;1251;60434;-86
2023/04/05 07:07:58;;;;;;;19.00;10.40;;;;;;;17.30;53.83;100062.14;106971;1252;60533;-86
2023/04/05 07:10:25;;;;;;;16.00;10.00;;;;;;;17.28;53.80;100058.30;106247;1251;74576;-86
2023/04/05 07:12:52;;;;;;;15.60;9.40;;;;;;;17.23;53.84;100056.69;106251;1255;65845;-86
2023/04/05 07:15:22;;;;;;;17.20;9.20;;;;;;;17.13;54.00;100061.55;107302;1255;73610;-84
2023/04/05 07:17:50;;;;;;;15.70;10.30;;;;;;;17.06;54.38;100068.00;106289;1255;60591;-86
2023/04/05 07:20:17;;;;;;;15.00;10.10;;;;;;;16.98;54.40;100068.43;106571;1251;61595;-86
2023/04/05 07:22:51;;;;;;;16.60;10.80;;;;;;;16.91;54.65;100067.85;106283;1256;74959;-88
2023/04/05 07:25:18;;;;;;;17.30;10.80;;;;;;;16.87;54.67;100057.83;106231;1251;65344;-84
2023/04/05 07:27:44;;;;;;;19.50;11.60;;;;;;;16.86;54.91;100058.64;106111;1253;73419;-84
2023/04/05 07:30:15;;;;;;;15.90;11.70;;;;;;;16.94;55.06;100056.81;106207;1251;61180;-85
2023/04/05 07:32:43;;;;;;;13.80;10.50;;;;;;;17.17;54.83;100048.41;106252;1251;61337;-84
2023/04/05 07:35:10;;;;;;;14.10;10.10;;;;;;;17.46;54.02;100046.27;106131;1251;74872;-85
2023/04/05 07:37:38;;;;;;;20.70;9.20;;;;;;;17.75;52.98;100051.48;106224;1251;64809;-87
2023/04/05 07:40:06;;;;;;;12.20;8.40;;;;;;;17.91;52.20;100047.23;106081;1251;73464;-85
2023/04/05 07:42:35;;;;;;;17.00;8.10;;;;;;;17.97;51.88;100046.05;106152;1251;61224;-86
2023/04/05 07:45:05;;;;;;;12.90;8.30;;;;;;;17.97;51.44;100050.66;106115;1251;61129;-87
2023/04/05 07:47:33;;;;;;;15.60;8.50;;;;;;;17.94;51.40;100044.79;106376;1251;74881;-85
2023/04/05 07:50:03;;;;;;;12.90;8.30;;;;;;;17.91;51.43;100038.52;106208;1251;64853;-85
2023/04/05 07:52:31;;;;;;;14.00;8.50;;;;;;;17.86;51.40;100032.38;106252;1251;73540;-85
2023/04/05 07:54:57;;;;;;;19.50;7.50;;;;;;;17.85;51.23;100032.41;106341;1253;61719;-84
2023/04/05 07:57:26;;;;;;;20.00;10.30;;;;;;;17.89;51.23;100031.85;106522;1251;60473;-87
2023/04/05 07:59:54;;;;;;;13.90;8.70;;;;;;;17.94;51.22;100032.23;106590;1253;73787;-85
2023/04/05 08:02:24;;;;;;;17.70;8.60;;;;;;;17.97;51.12;100028.70;106025;1251;63776;-87
2023/04/05 08:04:50;;;;;;;14.60;8.40;;;;;;;17.98;50.38;100025.45;106206;1251;73014;-87
2023/04/05 08:07:18;;;;;;;19.20;9.80;;;;;;;17.95;50.62;100017.39;106182;1255;60791;-87
2023/04/05 08:09:44;;;;;;;10.50;8.80;;;;;;;17.96;50.68;100022.69;106122;1255;60450;-86
2023/04/05 08:12:16;;;;;;;19.90;9.40;;;;;;;18.01;50.66;100017.52;106137;1251;74813;-86
2023/04/05 08:14:44;;;;;;;17.50;9.20;;;;;;;17.97;49.65;100015.97;106081;1255;64706;-85
2023/04/05 08:17:13;;;;;;;13.10;8.80;;;;;;;17.86;50.16;100013.20;105965;1251;72769;-87
2023/04/05 08:19:40;;;;;;;18.00;9.40;;;;;;;17.82;50.62;100015.60;106092;1251;60513;-86
2023/04/05 08:22:07;;;;;;;17.00;9.10;;;;;;;17.77;50.82;100020.42;106277;1251;60370;-86
2023/04/05 08:24:35;;;;;;;23.90;9.50;;;;;;;17.62;50.85;100017.02;106393;1252;73780;-87
2023/04/05 08:27:02;;;;;;;17.40;9.50;;;;;;;17.44;51.28;100013.66;106209;1255;64607;-86
2023/04/05 08:29:32;;;;;;;17.40;9.00;;;;;;;17.30;51.75;100010.95;106308;1251;73646;-88
2023/04/05 08:31:59;;;;;;;14.50;9.20;;;;;;;17.20;52.04;100005.55;106488;1255;61310;-88
2023/04/05 08:34:26;;;;;;;15.10;8.90;;;;;;;17.11;52.45;99999.52;106913;1252;60685;-86
2023/04/05 08:36:58;;;;;;;12.10;7.90;;;;;;;17.08;52.42;99999.84;107021;1251;74755;-84
2023/04/05 08:39:26;;;;;;;13.80;8.50;;;;;;;17.06;52.35;99997.18;108093;1251;63873;-85
2023/04/05 08:42:04;;;;;;;14.90;7.30;;;;;;;17.04;52.85;99990.32;107293;1251;73580;-87
2023/04/05 08:44:32;;;;;;;13.70;8.00;;;;;;;16.94;53.18;99989.58;107026;1252;61335;-86
2023/04/05 08:46:59;;;;;;;9.40;6.50;;;;;;;16.87;53.25;99984.10;106235;1251;61254;-86
2023/04/05 08:49:26;;;;;;;12.10;7.20;;;;;;;16.79;53.46;99986.19;106095;1255;75060;-85
2023/04/05 08:51:54;;;;;;;10.90;6.50;;;;;;;16.75;53.65;99979.70;106279;1251;64920;-87
2023/04/05 08:54:21;;;;;;;15.30;6.00;;;;;;;16.70;53.68;99977.38;106050;1251;73617;-85
2023/04/05 08:56:48;;;;;;;10.90;5.80;;;;;;;16.66;53.74;99978.80;106314;1255;61649;-86
2023/04/05 08:59:16;;;;;;;11.60;6.30;;;;;;;16.65;53.64;99976.29;106163;1251;61716;-85
2023/04/05 09:01:44;;;;;;;15.10;6.90;;;;;;;16.59;53.61;99969.59;106143;1253;73499;-83
2023/04/05 09:04:23;;;;;;;15.90;6.40;;;;;;;16.52;53.59;99963.54;106258;1251;64842;-82
2023/04/05 09:06:51;;;;;;;7.60;5.30;;;;;;;16.48;53.76;99960.23;106101;1253;73242;-85
2023/04/05 09:09:22;;;;;;;11.20;5.60;;;;;;;16.45;53.37;99972.90;106066;1255;61357;-86
2023/04/05 09:11:50;;;;;;;8.30;5.40;;;;;;;16.39;53.23;99965.88;106295;1255;60876;-86
2023/04/05 09:14:17;;;;;;;7.90;5.20;;;;;;;16.32;53.38;99959.13;106157;1255;74499;-86
2023/04/05 09:16:45;;;;;;;10.20;5.70;;;;;;;16.32;53.13;99961.42;106081;1252;64546;-85
2023/04/05 09:19:13;;;;;;;14.20;5.90;;;;;;;16.31;52.69;99971.13;105978;1258;73642;-85
2023/04/05 09:21:58;;;;;;;13.20;7.20;;;;;;;16.31;52.50;99976.45;106301;1256;61180;-86
2023/04/05 09:24:30;;;;;;;16.20;7.50;;;;;;;16.32;52.15;99977.64;106042;1255;60448;-86
2023/04/05 09:27:14;;;;;;;21.20;8.60;;;;;;;16.31;52.00;99985.00;106022;1251;74868;-86
2023/04/05 09:29:46;;;;;;;15.30;7.70;;;;;;;16.28;52.06;99959.95;106043;1251;64808;-85
2023/04/05 09:32:14;;;;;;;14.10;8.40;;;;;;;16.26;52.28;99971.86;105966;1255;73697;-86
2023/04/05 09:34:42;;;;;;;17.40;8.00;;;;;;;16.24;52.50;99955.83;106157;1251;61260;-86
2023/04/05 09:37:18;;;;;;;13.60;8.00;;;;;;;16.23;52.40;99951.30;106129;1251;60472;-85
2023/04/05 09:39:48;;;;;;;13.90;7.40;;;;;;;16.20;52.40;99956.02;106232;1253;73657;-86
2023/04/05 09:42:21;;;;;;;12.70;8.30;;;;;;;16.19;52.44;99966.41;106243;1252;64844;-87
2023/04/05 09:44:49;;;;;;;18.70;9.10;;;;;;;16.19;52.28;99972.37;106310;1251;72615;-85
2023/04/05 09:47:20;;;;;;;12.00;7.80;;;;;;;16.16;52.48;99969.39;106210;1251;60585;-85
2023/04/05 09:49:51;;;;;;;11.50;7.50;;;;;;;16.17;52.40;99964.59;106248;1251;61402;-84
2023/04/05 09:52:20;;;;;;;13.30;9.50;;;;;;;16.18;52.43;99962.53;106183;1255;74765;-84
2023/04/05 09:54:48;;;;;;;13.60;8.90;;;;;;;16.21;52.25;99962.41;106102;1255;64647;-85
2023/04/05 09:57:17;;;;;;;16.00;7.00;;;;;;;16.26;52.51;99970.61;106164;1253;73708;-84
2023/04/05 09:59:46;;;;;;;12.90;7.00;;;;;;;16.30;52.63;99982.73;106044;1256;61237;-85
2023/04/05 10:02:14;;;;;;;11.40;7.40;;;;;;;16.33;52.81;99985.65;106167;1251;60718;-84
2023/04/05 10:04:44;;;;;;;12.10;7.50;;;;;;;16.37;52.58;99996.03;106933;1255;74713;-85
2023/04/05 10:07:12;;;;;;;14.90;7.40;;;;;;;16.47;52.60;100003.92;106958;1251;63639;-84
2023/04/05 10:09:41;;;;;;;12.80;7.70;;;;;;;16.62;52.10;100006.15;107105;1252;72387;-84
2023/04/05 10:12:09;;;;;;;14.60;5.80;;;;;;;16.86;51.22;100006.42;106302;1255;60471;-83
2023/04/05 10:14:38;;;;;;;15.80;6.40;;;;;;;17.17;51.01;100004.14;106164;1251;62452;-87
2023/04/05 10:17:15;;;;;;;12.70;6.40;;;;;;;17.60;50.40;100002.16;106235;1252;74811;-85
2023/04/05 10:19:50;;;;;;;10.00;5.90;;;;;;;18.17;49.49;99991.20;106091;1253;63853;-85
2023/04/05 10:22:23;;;;;;;14.40;6.00;;;;;;;18.77;48.01;99996.66;106180;1251;72596;-85
2023/04/05 10:24:54;;;;;;;13.30;4.70;;;;;;;19.34;46.66;99999.55;106248;1256;61068;-85
2023/04/05 10:27:41;;;;;;;14.00;5.80;;;;;;;19.78;45.76;99996.27;106109;1257;60515;-87
2023/04/05 10:30:08;;;;;;;10.30;5.80;;;;;;;20.20;44.75;99988.13;106198;1253;74413;-85
2023/04/05 10:33:01;;;;;;;13.40;4.40;;;;;;;20.56;44.45;99992.05;106136;1255;63977;-88
2023/04/05 10:35:41;;;;;;;5.90;3.90;;;;;;;21.10;42.44;99989.79;106123;1251;73339;-86
2023/04/05 10:38:29;;;;;;;12.00;4.90;;;;;;;21.45;41.63;99992.45;106125;1255;60619;-85
2023/04/05 10:41:05;;;;;;;10.50;4.80;;;;;;;21.68;41.19;99980.89;106185;1251;61432;-86
2023/04/05 10:43:33;;;;;;;12.50;4.10;;;;;;;21.80;39.93;99992.79;106169;1251;74798;-85
2023/04/05 10:46:00;;;;;;;10.80;4.00;;;;;;;21.85;39.30;99986.34;106207;1251;64599;-87
2023/04/05 10:48:44;;;;;;;14.50;4.70;;;;;;;21.86;38.74;99982.58;106241;1251;73832;-86
2023/04/05 10:51:11;;;;;;;9.70;3.50;;;;;;;21.76;38.88;99980.39;106472;1255;61138;-85
2023/04/05 10:53:39;;;;;;;7.80;4.90;;;;;;;21.71;38.57;99983.27;107616;1251;61304;-87
2023/04/05 10:56:07;;;;;;;18.20;4.60;;;;;;;21.54;39.18;99986.10;106923;1251;74746;-86
2023/04/05 10:58:36;;;;;;;15.00;4.40;;;;;;;21.41;39.43;99978.16;106652;1255;64073;-85
2023/04/05 11:01:03;;;;;;;9.80;4.30;;;;;;;21.24;39.67;99982.77;106651;1256;74274;-86
2023/04/05 11:03:45;;;;;;;9.80;3.80;;;;;;;21.00;39.77;99982.52;106254;1257;60368;-87
2023/04/05 11:06:31;;;;;;;16.40;4.70;;;;;;;20.65;40.19;99980.95;106430;1251;61586;-86
2023/04/05 11:09:22;;;;;;;11.70;4.90;;;;;;;20.30;40.84;99975.78;106402;1255;75564;-85
2023/04/05 11:11:55;;;;;;;9.00;3.50;;;;;;;19.99;42.04;99974.02;107876;1251;64834;-85
2023/04/05 11:14:35;;;;;;;8.40;4.30;;;;;;;19.83;42.43;99972.66;106302;1255;74298;-85
2023/04/05 11:17:02;;;;;;;9.10;4.20;;;;;;;19.73;42.53;99963.59;106284;1251;60449;-83
2023/04/05 11:19:42;;;;;;;14.20;5.20;;;;;;;19.64;42.87;99968.48;106189;1251;61120;-84
2023/04/05 11:22:09;;;;;;;21.70;7.50;;;;;;;19.53;41.84;99960.80;106217;1253;75505;-84
2023/04/05 11:24:56;;;;;;;15.80;7.10;;;;;;;19.37;42.04;99957.08;106312;1251;64593;-85
2023/04/05 11:27:32;;;;;;;17.90;6.40;;;;;;;19.23;41.71;99955.70;106263;1251;73807;-88
2023/04/05 11:30:00;;;;;;;19.90;6.20;;;;;;;19.11;41.35;99942.46;106366;1251;60553;-86